sensor_id;sensor_type;location;lat;lon;timestamp;temperature;humidity
38910;DHT22;24676;51.360;12.354;2023-08-06T00:00:21;17.10;99.90
38910;DHT22;24676;51.360;12.354;2023-08-06T00:03:06;17.10;99.90
38910;DHT22;24676;51.360;12.354;2023-08-06T00:05:50;17.10;99.90
38910;DHT22;24676;51.360;12.354;2023-08-06T00:08:34;17.10;99.90
38910;DHT22;24676;51.360;12.354;2023-08-06T00:11:18;17.10;99.90
38910;DHT22;24676;51.360;12.354;2023-08-06T00:14:03;17.00;99.90
38910;DHT22;24676;51.360;12.354;2023-08-06T00:16:47;17.00;99.90
38910;DHT22;24676;51.360;12.354;2023-08-06T00:19:31;17.00;99.90
38910;DHT22;24676;51.360;12.354;2023-08-06T00:22:16;17.10;99.90
38910;DHT22;24676;51.360;12.354;2023-08-06T00:25:00;17.00;99.90
38910;DHT22;24676;51.360;12.354;2023-08-06T00:27:44;17.00;99.90
38910;DHT22;24676;51.360;12.354;2023-08-06T00:30:29;17.00;99.90
38910;DHT22;24676;51.360;12.354;2023-08-06T00:33:13;17.00;99.90
38910;DHT22;24676;51.360;12.354;2023-08-06T00:35:57;17.00;99.90
38910;DHT22;24676;51.360;12.354;2023-08-06T00:38:41;17.00;99.90
38910;DHT22;24676;51.360;12.354;2023-08-06T00:41:25;16.90;99.90
38910;DHT22;24676;51.360;12.354;2023-08-06T00:44:09;16.90;99.90
38910;DHT22;24676;51.360;12.354;2023-08-06T00:46:55;16.90;99.90
38910;DHT22;24676;51.360;12.354;2023-08-06T00:49:39;16.90;99.90
38910;DHT22;24676;51.360;12.354;2023-08-06T00:52:24;16.90;99.90
38910;DHT22;24676;51.360;12.354;2023-08-06T00:55:10;16.90;99.90
38910;DHT22;24676;51.360;12.354;2023-08-06T00:57:54;16.80;99.90
38910;DHT22;24676;51.360;12.354;2023-08-06T01:00:40;16.90;99.90
38910;DHT22;24676;51.360;12.354;2023-08-06T01:03:24;16.80;99.90
38910;DHT22;24676;51.360;12.354;2023-08-06T01:06:08;16.80;99.90
38910;DHT22;24676;51.360;12.354;2023-08-06T01:09:00;16.90;99.90
38910;DHT22;24676;51.360;12.354;2023-08-06T01:15:04;16.80;99.90
38910;DHT22;24676;51.360;12.354;2023-08-06T01:17:51;16.90;99.90
38910;DHT22;24676;51.360;12.354;2023-08-06T01:20:36;16.80;99.90
38910;DHT22;24676;51.360;12.354;2023-08-06T01:23:20;16.90;99.90
38910;DHT22;24676;51.360;12.354;2023-08-06T01:26:08;16.90;99.90
38910;DHT22;24676;51.360;12.354;2023-08-06T01:32:01;16.90;99.90
38910;DHT22;24676;51.360;12.354;2023-08-06T01:34:47;16.90;99.90
38910;DHT22;24676;51.360;12.354;2023-08-06T01:37:32;16.90;99.90
38910;DHT22;24676;51.360;12.354;2023-08-06T01:40:16;16.90;99.90
38910;DHT22;24676;51.360;12.354;2023-08-06T01:43:01;16.90;99.90
38910;DHT22;24676;51.360;12.354;2023-08-06T01:45:45;16.90;99.90
38910;DHT22;24676;51.360;12.354;2023-08-06T01:48:29;16.90;99.90
38910;DHT22;24676;51.360;12.354;2023-08-06T01:51:13;16.90;99.90
38910;DHT22;24676;51.360;12.354;2023-08-06T01:53:57;16.80;99.90
38910;DHT22;24676;51.360;12.354;2023-08-06T01:56:41;16.80;99.90
38910;DHT22;24676;51.360;12.354;2023-08-06T01:59:26;16.80;99.90
38910;DHT22;24676;51.360;12.354;2023-08-06T02:02:10;16.80;99.90
38910;DHT22;24676;51.360;12.354;2023-08-06T02:04:54;16.80;99.90
38910;DHT22;24676;51.360;12.354;2023-08-06T02:07:39;16.80;99.90
38910;DHT22;24676;51.360;12.354;2023-08-06T02:10:23;16.80;99.90
38910;DHT22;24676;51.360;12.354;2023-08-06T02:13:07;16.80;99.90
38910;DHT22;24676;51.360;12.354;2023-08-06T02:15:51;16.80;99.90
38910;DHT22;24676;51.360;12.354;2023-08-06T02:18:36;16.80;99.90
38910;DHT22;24676;51.360;12.354;2023-08-06T02:21:20;16.70;99.90
38910;DHT22;24676;51.360;12.354;2023-08-06T02:24:04;16.70;99.90
38910;DHT22;24676;51.360;12.354;2023-08-06T02:26:48;16.70;99.90
38910;DHT22;24676;51.360;12.354;2023-08-06T02:29:34;16.70;99.90
38910;DHT22;24676;51.360;12.354;2023-08-06T02:32:18;16.60;99.90
38910;DHT22;24676;51.360;12.354;2023-08-06T02:35:03;16.60;99.90
38910;DHT22;24676;51.360;12.354;2023-08-06T02:37:47;16.60;99.90
38910;DHT22;24676;51.360;12.354;2023-08-06T02:40:31;16.60;99.90
38910;DHT22;24676;51.360;12.354;2023-08-06T02:43:16;16.60;99.90
38910;DHT22;24676;51.360;12.354;2023-08-06T02:46:00;16.60;99.90
38910;DHT22;24676;51.360;12.354;2023-08-06T02:48:45;16.60;99.90
38910;DHT22;24676;51.360;12.354;2023-08-06T02:51:29;16.60;99.90
38910;DHT22;24676;51.360;12.354;2023-08-06T02:54:13;16.50;99.90
38910;DHT22;24676;51.360;12.354;2023-08-06T02:56:57;16.50;99.90
38910;DHT22;24676;51.360;12.354;2023-08-06T02:59:41;16.50;99.90
38910;DHT22;24676;51.360;12.354;2023-08-06T03:02:25;16.50;99.90
38910;DHT22;24676;51.360;12.354;2023-08-06T03:05:09;16.50;99.90
38910;DHT22;24676;51.360;12.354;2023-08-06T03:07:53;16.50;99.90
38910;DHT22;24676;51.360;12.354;2023-08-06T03:10:38;16.40;99.90
38910;DHT22;24676;51.360;12.354;2023-08-06T03:13:22;16.40;99.90
38910;DHT22;24676;51.360;12.354;2023-08-06T03:16:06;16.40;99.90
38910;DHT22;24676;51.360;12.354;2023-08-06T03:18:50;16.40;99.90
38910;DHT22;24676;51.360;12.354;2023-08-06T03:21:34;16.40;99.90
38910;DHT22;24676;51.360;12.354;2023-08-06T03:24:19;16.40;99.90
38910;DHT22;24676;51.360;12.354;2023-08-06T03:27:03;16.40;99.90
38910;DHT22;24676;51.360;12.354;2023-08-06T03:29:49;16.40;99.90
38910;DHT22;24676;51.360;12.354;2023-08-06T03:32:34;16.30;99.90
38910;DHT22;24676;51.360;12.354;2023-08-06T03:35:18;16.30;99.90
38910;DHT22;24676;51.360;12.354;2023-08-06T03:38:02;16.40;99.90
38910;DHT22;24676;51.360;12.354;2023-08-06T03:40:46;16.40;99.90
38910;DHT22;24676;51.360;12.354;2023-08-06T03:43:31;16.30;99.90
38910;DHT22;24676;51.360;12.354;2023-08-06T03:46:15;16.30;99.90
38910;DHT22;24676;51.360;12.354;2023-08-06T03:49:02;16.30;99.90
38910;DHT22;24676;51.360;12.354;2023-08-06T03:51:46;16.30;99.90
38910;DHT22;24676;51.360;12.354;2023-08-06T03:54:30;16.30;99.90
38910;DHT22;24676;51.360;12.354;2023-08-06T03:57:14;16.30;99.90
38910;DHT22;24676;51.360;12.354;2023-08-06T03:59:58;16.30;99.90
38910;DHT22;24676;51.360;12.354;2023-08-06T04:02:42;16.20;99.90
38910;DHT22;24676;51.360;12.354;2023-08-06T04:05:27;16.30;99.90
38910;DHT22;24676;51.360;12.354;2023-08-06T04:08:11;16.30;99.90
38910;DHT22;24676;51.360;12.354;2023-08-06T04:10:55;16.20;99.90
38910;DHT22;24676;51.360;12.354;2023-08-06T04:13:43;16.20;99.90
38910;DHT22;24676;51.360;12.354;2023-08-06T04:16:28;16.20;99.90
38910;DHT22;24676;51.360;12.354;2023-08-06T04:19:12;16.30;99.90
38910;DHT22;24676;51.360;12.354;2023-08-06T04:21:56;16.20;99.90
38910;DHT22;24676;51.360;12.354;2023-08-06T04:24:40;16.20;99.90
38910;DHT22;24676;51.360;12.354;2023-08-06T04:27:25;16.20;99.90
38910;DHT22;24676;51.360;12.354;2023-08-06T04:30:10;16.20;99.90
38910;DHT22;24676;51.360;12.354;2023-08-06T04:32:59;16.20;99.90
38910;DHT22;24676;51.360;12.354;2023-08-06T04:35:43;16.20;99.90
38910;DHT22;24676;51.360;12.354;2023-08-06T04:38:27;16.30;99.90
38910;DHT22;24676;51.360;12.354;2023-08-06T04:41:11;16.20;99.90
38910;DHT22;24676;51.360;12.354;2023-08-06T04:43:56;16.30;99.90
38910;DHT22;24676;51.360;12.354;2023-08-06T04:46:40;16.30;99.90
38910;DHT22;24676;51.360;12.354;2023-08-06T04:49:25;16.30;99.90
38910;DHT22;24676;51.360;12.354;2023-08-06T04:52:09;16.30;99.90
38910;DHT22;24676;51.360;12.354;2023-08-06T04:54:54;16.30;99.90
38910;DHT22;24676;51.360;12.354;2023-08-06T04:57:38;16.30;99.90
38910;DHT22;24676;51.360;12.354;2023-08-06T05:00:22;16.40;99.90
38910;DHT22;24676;51.360;12.354;2023-08-06T05:03:07;16.40;99.90
38910;DHT22;24676;51.360;12.354;2023-08-06T05:05:51;16.30;99.90
38910;DHT22;24676;51.360;12.354;2023-08-06T05:08:35;16.30;99.90
38910;DHT22;24676;51.360;12.354;2023-08-06T05:11:20;16.40;99.90
38910;DHT22;24676;51.360;12.354;2023-08-06T05:14:04;16.40;99.90
38910;DHT22;24676;51.360;12.354;2023-08-06T05:16:48;16.40;99.90
38910;DHT22;24676;51.360;12.354;2023-08-06T05:19:32;16.50;99.90
38910;DHT22;24676;51.360;12.354;2023-08-06T05:22:17;16.60;99.90
38910;DHT22;24676;51.360;12.354;2023-08-06T05:25:01;16.70;99.90
38910;DHT22;24676;51.360;12.354;2023-08-06T05:27:45;16.80;99.90
38910;DHT22;24676;51.360;12.354;2023-08-06T05:30:29;16.90;99.90
38910;DHT22;24676;51.360;12.354;2023-08-06T05:33:13;16.90;99.90
38910;DHT22;24676;51.360;12.354;2023-08-06T05:35:58;16.80;99.90
38910;DHT22;24676;51.360;12.354;2023-08-06T05:38:42;16.80;99.90
38910;DHT22;24676;51.360;12.354;2023-08-06T05:41:26;16.80;99.90
38910;DHT22;24676;51.360;12.354;2023-08-06T05:44:11;16.80;99.90
38910;DHT22;24676;51.360;12.354;2023-08-06T05:46:55;16.80;99.90
38910;DHT22;24676;51.360;12.354;2023-08-06T05:49:39;16.80;99.90
38910;DHT22;24676;51.360;12.354;2023-08-06T05:52:23;16.70;99.90
38910;DHT22;24676;51.360;12.354;2023-08-06T05:55:07;16.70;99.90
38910;DHT22;24676;51.360;12.354;2023-08-06T05:57:52;16.70;99.90
38910;DHT22;24676;51.360;12.354;2023-08-06T06:00:36;16.70;99.90
38910;DHT22;24676;51.360;12.354;2023-08-06T06:03:20;16.80;99.90
38910;DHT22;24676;51.360;12.354;2023-08-06T06:06:04;16.80;99.90
38910;DHT22;24676;51.360;12.354;2023-08-06T06:08:48;16.90;99.90
38910;DHT22;24676;51.360;12.354;2023-08-06T06:11:32;16.90;99.90
38910;DHT22;24676;51.360;12.354;2023-08-06T06:14:17;17.00;99.90
38910;DHT22;24676;51.360;12.354;2023-08-06T06:17:02;17.00;99.90
38910;DHT22;24676;51.360;12.354;2023-08-06T06:19:46;17.10;99.90
38910;DHT22;24676;51.360;12.354;2023-08-06T06:22:30;17.20;99.90
38910;DHT22;24676;51.360;12.354;2023-08-06T06:25:15;17.40;99.90
38910;DHT22;24676;51.360;12.354;2023-08-06T06:27:59;17.40;99.90
38910;DHT22;24676;51.360;12.354;2023-08-06T06:30:43;17.50;99.90
38910;DHT22;24676;51.360;12.354;2023-08-06T06:33:28;17.50;99.90
38910;DHT22;24676;51.360;12.354;2023-08-06T06:36:12;17.50;99.90
38910;DHT22;24676;51.360;12.354;2023-08-06T06:38:57;17.60;99.90
38910;DHT22;24676;51.360;12.354;2023-08-06T06:41:41;17.70;99.90
38910;DHT22;24676;51.360;12.354;2023-08-06T06:44:25;17.80;99.90
38910;DHT22;24676;51.360;12.354;2023-08-06T06:47:09;17.80;99.90
38910;DHT22;24676;51.360;12.354;2023-08-06T06:49:53;17.80;99.90
38910;DHT22;24676;51.360;12.354;2023-08-06T06:52:38;17.90;99.90
38910;DHT22;24676;51.360;12.354;2023-08-06T06:55:22;17.90;99.90
38910;DHT22;24676;51.360;12.354;2023-08-06T06:58:06;18.00;99.90
38910;DHT22;24676;51.360;12.354;2023-08-06T07:00:50;18.00;99.90
38910;DHT22;24676;51.360;12.354;2023-08-06T07:03:35;18.10;99.90
38910;DHT22;24676;51.360;12.354;2023-08-06T07:06:19;18.10;99.90
38910;DHT22;24676;51.360;12.354;2023-08-06T07:09:03;18.20;99.90
38910;DHT22;24676;51.360;12.354;2023-08-06T07:11:47;18.30;99.90
38910;DHT22;24676;51.360;12.354;2023-08-06T07:14:32;18.30;99.90
38910;DHT22;24676;51.360;12.354;2023-08-06T07:17:16;18.40;99.90
38910;DHT22;24676;51.360;12.354;2023-08-06T07:20:00;18.40;99.90
38910;DHT22;24676;51.360;12.354;2023-08-06T07:22:45;18.50;99.90
38910;DHT22;24676;51.360;12.354;2023-08-06T07:25:29;18.60;99.90
38910;DHT22;24676;51.360;12.354;2023-08-06T07:28:14;18.60;99.90
38910;DHT22;24676;51.360;12.354;2023-08-06T07:30:58;18.70;99.90
38910;DHT22;24676;51.360;12.354;2023-08-06T07:33:43;18.70;99.90
38910;DHT22;24676;51.360;12.354;2023-08-06T07:36:27;18.80;99.90
38910;DHT22;24676;51.360;12.354;2023-08-06T07:39:11;18.90;99.90
38910;DHT22;24676;51.360;12.354;2023-08-06T07:41:55;19.00;99.90
38910;DHT22;24676;51.360;12.354;2023-08-06T07:44:39;19.10;99.90
38910;DHT22;24676;51.360;12.354;2023-08-06T07:47:24;19.10;99.90
38910;DHT22;24676;51.360;12.354;2023-08-06T07:50:08;19.10;99.90
38910;DHT22;24676;51.360;12.354;2023-08-06T07:52:53;19.20;99.90
38910;DHT22;24676;51.360;12.354;2023-08-06T07:55:37;19.10;99.90
38910;DHT22;24676;51.360;12.354;2023-08-06T07:58:23;19.00;99.90
38910;DHT22;24676;51.360;12.354;2023-08-06T08:01:07;19.00;99.90
38910;DHT22;24676;51.360;12.354;2023-08-06T08:03:52;18.90;99.90
38910;DHT22;24676;51.360;12.354;2023-08-06T08:06:36;19.00;99.90
38910;DHT22;24676;51.360;12.354;2023-08-06T08:09:21;19.10;99.90
38910;DHT22;24676;51.360;12.354;2023-08-06T08:12:06;19.20;99.90
38910;DHT22;24676;51.360;12.354;2023-08-06T08:14:50;19.20;99.90
38910;DHT22;24676;51.360;12.354;2023-08-06T08:17:34;19.30;99.90
38910;DHT22;24676;51.360;12.354;2023-08-06T08:20:18;19.50;99.90
38910;DHT22;24676;51.360;12.354;2023-08-06T08:23:03;19.50;99.90
38910;DHT22;24676;51.360;12.354;2023-08-06T08:25:47;19.50;99.90
38910;DHT22;24676;51.360;12.354;2023-08-06T08:28:32;19.60;99.90
38910;DHT22;24676;51.360;12.354;2023-08-06T08:31:16;19.60;99.90
38910;DHT22;24676;51.360;12.354;2023-08-06T08:34:00;19.60;99.90
38910;DHT22;24676;51.360;12.354;2023-08-06T08:36:45;19.60;99.90
38910;DHT22;24676;51.360;12.354;2023-08-06T08:39:33;19.90;99.90
38910;DHT22;24676;51.360;12.354;2023-08-06T08:42:18;20.10;99.90
38910;DHT22;24676;51.360;12.354;2023-08-06T08:45:04;20.30;99.90
38910;DHT22;24676;51.360;12.354;2023-08-06T08:47:52;20.50;99.90
38910;DHT22;24676;51.360;12.354;2023-08-06T08:50:36;20.80;99.90
38910;DHT22;24676;51.360;12.354;2023-08-06T08:53:21;21.00;99.90
38910;DHT22;24676;51.360;12.354;2023-08-06T08:56:06;21.10;99.90
38910;DHT22;24676;51.360;12.354;2023-08-06T08:58:50;21.20;99.90
38910;DHT22;24676;51.360;12.354;2023-08-06T09:01:38;21.50;99.90
38910;DHT22;24676;51.360;12.354;2023-08-06T09:04:23;21.60;99.90
38910;DHT22;24676;51.360;12.354;2023-08-06T09:07:08;21.70;99.90
38910;DHT22;24676;51.360;12.354;2023-08-06T09:09:54;22.00;99.90
38910;DHT22;24676;51.360;12.354;2023-08-06T09:12:39;22.40;99.90
38910;DHT22;24676;51.360;12.354;2023-08-06T09:15:27;22.90;99.90
38910;DHT22;24676;51.360;12.354;2023-08-06T09:18:11;23.10;97.20
38910;DHT22;24676;51.360;12.354;2023-08-06T09:20:56;23.30;95.60
38910;DHT22;24676;51.360;12.354;2023-08-06T09:23:41;23.80;91.80
38910;DHT22;24676;51.360;12.354;2023-08-06T09:26:33;24.20;90.10
38910;DHT22;24676;51.360;12.354;2023-08-06T09:29:18;24.40;85.20
38910;DHT22;24676;51.360;12.354;2023-08-06T09:32:02;24.50;83.10
38910;DHT22;24676;51.360;12.354;2023-08-06T09:34:47;24.40;85.30
38910;DHT22;24676;51.360;12.354;2023-08-06T09:37:39;24.40;80.90
38910;DHT22;24676;51.360;12.354;2023-08-06T09:40:30;24.20;79.60
38910;DHT22;24676;51.360;12.354;2023-08-06T09:43:15;24.10;79.80
38910;DHT22;24676;51.360;12.354;2023-08-06T09:45:59;24.00;79.40
38910;DHT22;24676;51.360;12.354;2023-08-06T09:48:47;23.70;82.40
38910;DHT22;24676;51.360;12.354;2023-08-06T09:51:31;23.40;84.20
38910;DHT22;24676;51.360;12.354;2023-08-06T09:54:16;23.30;85.20
38910;DHT22;24676;51.360;12.354;2023-08-06T09:57:00;23.30;84.00
38910;DHT22;24676;51.360;12.354;2023-08-06T09:59:44;23.40;81.20
38910;DHT22;24676;51.360;12.354;2023-08-06T10:02:31;23.30;81.80
38910;DHT22;24676;51.360;12.354;2023-08-06T10:05:16;23.30;80.80
38910;DHT22;24676;51.360;12.354;2023-08-06T10:08:02;23.30;81.40
38910;DHT22;24676;51.360;12.354;2023-08-06T10:10:47;23.30;81.40
38910;DHT22;24676;51.360;12.354;2023-08-06T10:13:33;23.60;81.70
38910;DHT22;24676;51.360;12.354;2023-08-06T10:16:19;24.00;80.40
38910;DHT22;24676;51.360;12.354;2023-08-06T10:19:04;24.30;79.20
38910;DHT22;24676;51.360;12.354;2023-08-06T10:24:53;24.70;75.50
38910;DHT22;24676;51.360;12.354;2023-08-06T10:30:26;24.80;71.50
38910;DHT22;24676;51.360;12.354;2023-08-06T10:33:13;25.10;69.50
38910;DHT22;24676;51.360;12.354;2023-08-06T10:36:00;25.00;69.20
38910;DHT22;24676;51.360;12.354;2023-08-06T10:38:49;24.90;66.50
38910;DHT22;24676;51.360;12.354;2023-08-06T10:41:33;24.80;68.00
38910;DHT22;24676;51.360;12.354;2023-08-06T10:44:17;24.50;68.20
38910;DHT22;24676;51.360;12.354;2023-08-06T10:47:27;24.50;69.40
38910;DHT22;24676;51.360;12.354;2023-08-06T10:50:16;24.50;69.00
38910;DHT22;24676;51.360;12.354;2023-08-06T10:53:04;24.80;69.00
38910;DHT22;24676;51.360;12.354;2023-08-06T10:55:50;25.10;70.20
38910;DHT22;24676;51.360;12.354;2023-08-06T10:58:34;25.40;68.60
38910;DHT22;24676;51.360;12.354;2023-08-06T11:01:19;25.80;65.70
38910;DHT22;24676;51.360;12.354;2023-08-06T11:04:03;26.00;64.20
38910;DHT22;24676;51.360;12.354;2023-08-06T11:06:52;26.40;63.10
38910;DHT22;24676;51.360;12.354;2023-08-06T11:09:37;26.90;60.50
38910;DHT22;24676;51.360;12.354;2023-08-06T11:12:21;26.90;62.50
38910;DHT22;24676;51.360;12.354;2023-08-06T11:15:06;27.30;58.20
38910;DHT22;24676;51.360;12.354;2023-08-06T11:17:51;27.20;58.00
38910;DHT22;24676;51.360;12.354;2023-08-06T11:20:35;27.10;58.80
38910;DHT22;24676;51.360;12.354;2023-08-06T11:23:20;27.30;57.20
38910;DHT22;24676;51.360;12.354;2023-08-06T11:26:04;28.00;57.00
38910;DHT22;24676;51.360;12.354;2023-08-06T11:28:49;28.20;55.00
38910;DHT22;24676;51.360;12.354;2023-08-06T11:31:36;28.30;54.20
38910;DHT22;24676;51.360;12.354;2023-08-06T11:34:20;28.50;53.60
38910;DHT22;24676;51.360;12.354;2023-08-06T11:37:06;29.00;53.00
38910;DHT22;24676;51.360;12.354;2023-08-06T11:39:50;28.80;52.20
38910;DHT22;24676;51.360;12.354;2023-08-06T11:42:36;28.30;52.80
38910;DHT22;24676;51.360;12.354;2023-08-06T11:45:24;28.40;52.20
38910;DHT22;24676;51.360;12.354;2023-08-06T11:48:08;28.20;52.50
38910;DHT22;24676;51.360;12.354;2023-08-06T11:50:55;27.80;53.10
38910;DHT22;24676;51.360;12.354;2023-08-06T11:53:41;27.00;53.80
38910;DHT22;24676;51.360;12.354;2023-08-06T11:56:25;26.70;56.10
38910;DHT22;24676;51.360;12.354;2023-08-06T11:59:12;26.60;56.60
38910;DHT22;24676;51.360;12.354;2023-08-06T12:01:56;26.40;56.70
38910;DHT22;24676;51.360;12.354;2023-08-06T12:07:45;26.00;58.00
38910;DHT22;24676;51.360;12.354;2023-08-06T12:10:30;25.70;58.50
38910;DHT22;24676;51.360;12.354;2023-08-06T12:13:14;25.50;58.50
38910;DHT22;24676;51.360;12.354;2023-08-06T12:15:58;25.50;58.70
38910;DHT22;24676;51.360;12.354;2023-08-06T12:18:42;25.30;58.20
38910;DHT22;24676;51.360;12.354;2023-08-06T12:21:27;25.20;60.20
38910;DHT22;24676;51.360;12.354;2023-08-06T12:24:11;25.30;59.80
38910;DHT22;24676;51.360;12.354;2023-08-06T12:26:55;25.60;61.00
38910;DHT22;24676;51.360;12.354;2023-08-06T12:29:42;25.80;58.80
38910;DHT22;24676;51.360;12.354;2023-08-06T12:32:26;26.00;57.70
38910;DHT22;24676;51.360;12.354;2023-08-06T12:35:11;26.30;55.10
38910;DHT22;24676;51.360;12.354;2023-08-06T12:37:55;27.00;55.80
38910;DHT22;24676;51.360;12.354;2023-08-06T12:40:41;27.60;54.50
38910;DHT22;24676;51.360;12.354;2023-08-06T12:43:25;27.90;51.10
38910;DHT22;24676;51.360;12.354;2023-08-06T12:46:10;27.70;48.30
38910;DHT22;24676;51.360;12.354;2023-08-06T12:48:57;27.20;50.40
38910;DHT22;24676;51.360;12.354;2023-08-06T12:51:41;26.80;51.00
38910;DHT22;24676;51.360;12.354;2023-08-06T12:54:26;26.40;51.80
38910;DHT22;24676;51.360;12.354;2023-08-06T12:57:10;26.30;52.50
38910;DHT22;24676;51.360;12.354;2023-08-06T12:59:55;26.30;54.20
38910;DHT22;24676;51.360;12.354;2023-08-06T13:02:39;26.10;55.30
38910;DHT22;24676;51.360;12.354;2023-08-06T13:05:23;26.10;55.30
38910;DHT22;24676;51.360;12.354;2023-08-06T13:08:07;26.10;55.50
38910;DHT22;24676;51.360;12.354;2023-08-06T13:10:52;25.90;55.30
38910;DHT22;24676;51.360;12.354;2023-08-06T13:13:38;25.90;56.60
38910;DHT22;24676;51.360;12.354;2023-08-06T13:16:22;25.50;57.00
38910;DHT22;24676;51.360;12.354;2023-08-06T13:19:07;25.20;57.50
38910;DHT22;24676;51.360;12.354;2023-08-06T13:21:58;25.00;58.40
38910;DHT22;24676;51.360;12.354;2023-08-06T13:24:43;24.80;57.30
38910;DHT22;24676;51.360;12.354;2023-08-06T13:27:27;24.70;58.10
38910;DHT22;24676;51.360;12.354;2023-08-06T13:30:11;24.70;57.50
38910;DHT22;24676;51.360;12.354;2023-08-06T13:32:55;24.80;57.90
38910;DHT22;24676;51.360;12.354;2023-08-06T13:35:40;25.00;57.50
38910;DHT22;24676;51.360;12.354;2023-08-06T13:38:24;25.30;56.90
38910;DHT22;24676;51.360;12.354;2023-08-06T13:41:08;25.50;55.90
38910;DHT22;24676;51.360;12.354;2023-08-06T13:43:52;25.80;55.50
38910;DHT22;24676;51.360;12.354;2023-08-06T13:46:36;26.00;54.90
38910;DHT22;24676;51.360;12.354;2023-08-06T13:49:21;26.00;54.00
38910;DHT22;24676;51.360;12.354;2023-08-06T13:52:05;26.40;52.80
38910;DHT22;24676;51.360;12.354;2023-08-06T13:54:49;26.70;52.00
38910;DHT22;24676;51.360;12.354;2023-08-06T13:57:34;26.80;52.90
38910;DHT22;24676;51.360;12.354;2023-08-06T14:00:18;26.90;52.70
38910;DHT22;24676;51.360;12.354;2023-08-06T14:03:02;27.10;50.80
38910;DHT22;24676;51.360;12.354;2023-08-06T14:05:47;27.10;49.90
38910;DHT22;24676;51.360;12.354;2023-08-06T14:08:31;26.90;51.10
38910;DHT22;24676;51.360;12.354;2023-08-06T14:11:15;26.90;50.50
38910;DHT22;24676;51.360;12.354;2023-08-06T14:13:59;26.80;49.50
38910;DHT22;24676;51.360;12.354;2023-08-06T14:16:43;26.40;49.60
38910;DHT22;24676;51.360;12.354;2023-08-06T14:19:28;26.40;49.40
38910;DHT22;24676;51.360;12.354;2023-08-06T14:22:12;26.10;49.20
38910;DHT22;24676;51.360;12.354;2023-08-06T14:25:00;25.90;49.30
38910;DHT22;24676;51.360;12.354;2023-08-06T14:27:44;25.90;49.70
38910;DHT22;24676;51.360;12.354;2023-08-06T14:30:28;25.90;50.00
38910;DHT22;24676;51.360;12.354;2023-08-06T14:33:12;26.00;50.80
38910;DHT22;24676;51.360;12.354;2023-08-06T14:35:56;26.00;50.70
38910;DHT22;24676;51.360;12.354;2023-08-06T14:38:40;26.00;50.30
38910;DHT22;24676;51.360;12.354;2023-08-06T14:41:25;26.00;50.60
38910;DHT22;24676;51.360;12.354;2023-08-06T14:44:09;26.10;49.90
38910;DHT22;24676;51.360;12.354;2023-08-06T14:46:53;26.10;49.90
38910;DHT22;24676;51.360;12.354;2023-08-06T14:49:37;26.00;50.80
38910;DHT22;24676;51.360;12.354;2023-08-06T14:52:22;25.90;50.60
38910;DHT22;24676;51.360;12.354;2023-08-06T14:55:06;25.90;50.20
38910;DHT22;24676;51.360;12.354;2023-08-06T14:57:51;25.90;50.30
38910;DHT22;24676;51.360;12.354;2023-08-06T15:00:35;26.00;50.60
38910;DHT22;24676;51.360;12.354;2023-08-06T15:03:19;26.10;51.00
38910;DHT22;24676;51.360;12.354;2023-08-06T15:06:03;26.10;50.40
38910;DHT22;24676;51.360;12.354;2023-08-06T15:08:48;26.00;50.50
38910;DHT22;24676;51.360;12.354;2023-08-06T15:11:32;25.90;51.10
38910;DHT22;24676;51.360;12.354;2023-08-06T15:14:16;25.80;52.20
38910;DHT22;24676;51.360;12.354;2023-08-06T15:17:00;25.80;51.20
38910;DHT22;24676;51.360;12.354;2023-08-06T15:19:44;25.60;51.00
38910;DHT22;24676;51.360;12.354;2023-08-06T15:22:29;25.60;52.80
38910;DHT22;24676;51.360;12.354;2023-08-06T15:25:15;25.50;52.80
38910;DHT22;24676;51.360;12.354;2023-08-06T15:28:00;25.50;53.30
38910;DHT22;24676;51.360;12.354;2023-08-06T15:30:50;25.40;51.80
38910;DHT22;24676;51.360;12.354;2023-08-06T15:33:35;25.40;52.40
38910;DHT22;24676;51.360;12.354;2023-08-06T15:36:19;25.20;52.30
38910;DHT22;24676;51.360;12.354;2023-08-06T15:39:03;25.00;53.10
38910;DHT22;24676;51.360;12.354;2023-08-06T15:41:50;24.80;54.60
38910;DHT22;24676;51.360;12.354;2023-08-06T15:44:34;24.60;56.70
38910;DHT22;24676;51.360;12.354;2023-08-06T15:47:22;24.20;59.70
38910;DHT22;24676;51.360;12.354;2023-08-06T15:50:07;23.90;62.20
38910;DHT22;24676;51.360;12.354;2023-08-06T15:52:51;23.70;64.10
38910;DHT22;24676;51.360;12.354;2023-08-06T15:55:36;23.60;66.00
38910;DHT22;24676;51.360;12.354;2023-08-06T15:58:21;23.40;67.70
38910;DHT22;24676;51.360;12.354;2023-08-06T16:01:05;23.30;68.70
38910;DHT22;24676;51.360;12.354;2023-08-06T16:03:49;23.10;69.80
38910;DHT22;24676;51.360;12.354;2023-08-06T16:06:33;23.00;71.00
38910;DHT22;24676;51.360;12.354;2023-08-06T16:09:17;22.90;70.90
38910;DHT22;24676;51.360;12.354;2023-08-06T16:12:01;22.90;72.10
38910;DHT22;24676;51.360;12.354;2023-08-06T16:14:47;22.80;72.30
38910;DHT22;24676;51.360;12.354;2023-08-06T16:17:32;22.70;73.70
38910;DHT22;24676;51.360;12.354;2023-08-06T16:20:16;22.60;76.20
38910;DHT22;24676;51.360;12.354;2023-08-06T16:23:00;22.40;77.80
38910;DHT22;24676;51.360;12.354;2023-08-06T16:25:45;22.20;81.40
38910;DHT22;24676;51.360;12.354;2023-08-06T16:28:31;22.10;81.90
38910;DHT22;24676;51.360;12.354;2023-08-06T16:31:15;21.90;84.30
38910;DHT22;24676;51.360;12.354;2023-08-06T16:33:59;21.80;86.80
38910;DHT22;24676;51.360;12.354;2023-08-06T16:36:43;21.90;87.90
38910;DHT22;24676;51.360;12.354;2023-08-06T16:39:28;21.90;90.90
38910;DHT22;24676;51.360;12.354;2023-08-06T16:42:13;22.00;92.00
38910;DHT22;24676;51.360;12.354;2023-08-06T16:44:58;22.00;92.10
38910;DHT22;24676;51.360;12.354;2023-08-06T16:47:42;22.00;93.60
38910;DHT22;24676;51.360;12.354;2023-08-06T16:50:26;21.90;93.00
38910;DHT22;24676;51.360;12.354;2023-08-06T16:53:11;21.70;94.30
38910;DHT22;24676;51.360;12.354;2023-08-06T16:55:55;21.50;95.00
38910;DHT22;24676;51.360;12.354;2023-08-06T16:58:41;21.30;95.30
38910;DHT22;24676;51.360;12.354;2023-08-06T17:01:25;21.00;99.90
38910;DHT22;24676;51.360;12.354;2023-08-06T17:04:09;20.40;99.90
38910;DHT22;24676;51.360;12.354;2023-08-06T17:06:53;20.00;99.90
38910;DHT22;24676;51.360;12.354;2023-08-06T17:09:37;19.70;99.90
38910;DHT22;24676;51.360;12.354;2023-08-06T17:12:21;19.50;99.90
38910;DHT22;24676;51.360;12.354;2023-08-06T17:15:06;19.30;99.90
38910;DHT22;24676;51.360;12.354;2023-08-06T17:17:50;19.20;99.90